createdAt,value
2017-11-01T00:00:22.387Z,81.24
2017-11-01T00:02:52.156Z,80.01
2017-11-01T00:05:20.511Z,80.07
2017-11-01T00:07:48.962Z,80.63
2017-11-01T00:10:18.256Z,81.18
2017-11-01T00:12:47.180Z,80.25
2017-11-01T00:15:16.350Z,81.39
2017-11-01T00:17:45.742Z,81.23
2017-11-01T00:20:14.419Z,82.56
2017-11-01T00:22:43.605Z,82.29
2017-11-01T00:25:12.034Z,82.23
2017-11-01T00:27:41.211Z,82.06
2017-11-01T00:30:09.578Z,82.29
2017-11-01T00:32:38.629Z,82.05
2017-11-01T00:35:07.815Z,81.30
2017-11-01T00:37:36.173Z,81.63
2017-11-01T00:40:06.078Z,82.57
2017-11-01T00:42:34.462Z,82.14
2017-11-01T00:45:03.836Z,83.32
2017-11-01T00:47:32.213Z,83.11
2017-11-01T00:50:00.585Z,82.12
2017-11-01T00:52:28.933Z,82.91
2017-11-01T00:54:57.918Z,81.92
2017-11-01T00:57:26.274Z,82.06
2017-11-01T00:59:54.639Z,82.60
2017-11-01T01:02:24.685Z,82.95
2017-11-01T01:04:53.754Z,82.70
2017-11-01T01:07:22.378Z,81.89
2017-11-01T01:09:51.790Z,81.88
2017-11-01T01:12:20.127Z,81.87
2017-11-01T01:14:50.188Z,82.05
2017-11-01T01:17:18.853Z,83.14
2017-11-01T01:19:47.189Z,83.83
2017-11-01T01:22:15.550Z,83.65
2017-11-01T01:24:44.565Z,82.92
2017-11-01T01:27:12.926Z,82.51
2017-11-01T01:29:41.315Z,82.41
2017-11-01T01:32:10.838Z,81.71
2017-11-01T01:34:39.190Z,83.10
2017-11-01T01:37:08.150Z,83.37
2017-11-01T01:39:37.442Z,83.98
2017-11-01T01:42:06.551Z,83.57
2017-11-01T01:44:39.402Z,82.73
2017-11-01T01:47:08.654Z,81.94
2017-11-01T01:49:37.041Z,81.72
2017-11-01T01:52:05.615Z,82.37
2017-11-01T01:54:34.007Z,82.04
2017-11-01T01:57:02.390Z,82.25
2017-11-01T01:59:30.751Z,81.99
2017-11-01T02:01:59.427Z,82.04
2017-11-01T02:04:28.554Z,81.99
2017-11-01T02:06:56.925Z,82.75
2017-11-01T02:09:25.311Z,82.13
2017-11-01T02:11:53.741Z,82.17
2017-11-01T02:14:22.860Z,83.37
2017-11-01T02:16:52.005Z,82.55
2017-11-01T02:19:20.356Z,83.60
2017-11-01T02:21:48.700Z,82.62
2017-11-01T02:24:17.139Z,83.14
2017-11-01T02:26:46.703Z,82.98
2017-11-01T02:29:15.065Z,83.53
2017-11-01T02:31:44.224Z,83.06
2017-11-01T02:34:12.575Z,83.36
2017-11-01T02:36:40.936Z,82.72
2017-11-01T02:39:09.303Z,82.48
2017-11-01T02:41:38.941Z,82.30
2017-11-01T02:44:07.315Z,82.28
2017-11-01T02:46:36.274Z,83.07
2017-11-01T02:49:04.647Z,82.13
2017-11-01T02:51:33.848Z,82.34
2017-11-01T02:54:02.291Z,81.62
2017-11-01T02:56:32.098Z,81.58
2017-11-01T02:59:01.201Z,81.94
2017-11-01T03:01:32.341Z,82.33
2017-11-01T03:04:00.745Z,83.47
2017-11-01T03:06:29.245Z,83.67
2017-11-01T03:08:58.603Z,83.43
2017-11-01T03:11:27.529Z,83.23
2017-11-01T03:13:55.886Z,83.01
2017-11-01T03:16:24.321Z,82.68
2017-11-01T03:18:52.747Z,83.57
2017-11-01T03:21:21.114Z,82.99
2017-11-01T03:23:50.270Z,82.82
2017-11-01T03:26:18.637Z,81.74
2017-11-01T03:28:47.804Z,81.59
2017-11-01T03:31:16.416Z,82.22
2017-11-01T03:33:45.866Z,82.18
2017-11-01T03:36:14.242Z,82.39
2017-11-01T03:38:42.800Z,83.05
2017-11-01T03:41:11.977Z,83.69
2017-11-01T03:43:41.129Z,83.23
2017-11-01T03:46:09.558Z,82.75
2017-11-01T03:48:37.994Z,82.11
2017-11-01T03:51:06.499Z,82.42
2017-11-01T03:53:34.925Z,83.33
2017-11-01T03:56:03.374Z,83.34
2017-11-01T03:58:31.744Z,83.25
2017-11-01T04:01:00.202Z,83.81
2017-11-01T04:03:29.374Z,83.70
2017-11-01T04:05:57.805Z,83.19
2017-11-01T04:08:26.216Z,83.87
2017-11-01T04:10:55.457Z,83.47
2017-11-01T04:13:23.917Z,83.67
2017-11-01T04:15:52.705Z,83.46
2017-11-01T04:21:30.496Z,83.66
2017-11-01T04:24:00.014Z,83.16
2017-11-01T04:26:29.466Z,82.67
2017-11-01T04:28:58.956Z,82.95
2017-11-01T04:31:27.496Z,83.34
2017-11-01T04:33:56.643Z,84.10
2017-11-01T04:36:26.133Z,84.21
2017-11-01T04:38:55.004Z,83.55
2017-11-01T04:41:23.744Z,83.21
2017-11-01T04:43:52.386Z,82.61
2017-11-01T04:46:20.816Z,83.07
2017-11-01T04:48:51.958Z,83.94
2017-11-01T04:51:27.673Z,83.62
2017-11-01T04:53:56.026Z,83.85
2017-11-01T04:56:25.134Z,84.06
2017-11-01T04:58:54.223Z,83.99
2017-11-01T05:01:22.576Z,84.95
2017-11-01T05:03:51.694Z,84.32
2017-11-01T05:06:20.078Z,83.57
2017-11-01T05:08:51.418Z,83.47
2017-11-01T05:11:22.938Z,83.38
2017-11-01T05:13:58.395Z,83.55
2017-11-01T05:16:27.648Z,82.95
2017-11-01T05:18:55.993Z,82.91
2017-11-01T05:21:25.037Z,83.74
2017-11-01T05:23:53.413Z,83.68
2017-11-01T05:26:21.761Z,83.16
2017-11-01T05:28:50.117Z,83.97
2017-11-01T05:31:20.857Z,83.65
2017-11-01T05:33:49.200Z,83.58
2017-11-01T05:36:17.632Z,83.26
2017-11-01T05:38:46.023Z,83.30
2017-11-01T05:41:14.369Z,83.24
2017-11-01T05:43:43.486Z,82.67
2017-11-01T05:46:11.861Z,83.20
2017-11-01T05:48:40.937Z,83.41
2017-11-01T05:51:10.158Z,83.06
2017-11-01T05:53:39.665Z,83.48
2017-11-01T05:56:08.025Z,83.41
2017-11-01T05:58:37.144Z,83.04
2017-11-01T06:01:06.430Z,83.48
2017-11-01T06:03:34.802Z,83.62
2017-11-01T06:06:03.869Z,83.33
2017-11-01T06:08:32.626Z,83.77
2017-11-01T06:11:01.977Z,83.34
2017-11-01T06:13:30.309Z,83.61
2017-11-01T06:16:00.628Z,83.96
2017-11-01T06:18:30.651Z,84.73
2017-11-01T06:20:58.998Z,83.98
2017-11-01T06:23:28.135Z,84.25
2017-11-01T06:25:56.508Z,84.67
2017-11-01T06:28:24.876Z,84.10
2017-11-01T06:30:54.600Z,83.69
2017-11-01T06:33:23.984Z,83.42
2017-11-01T06:35:52.334Z,83.19
2017-11-01T06:38:22.514Z,82.68
2017-11-01T06:40:51.165Z,83.38
2017-11-01T06:43:19.584Z,83.43
2017-11-01T06:45:47.942Z,83.48
2017-11-01T06:48:16.293Z,83.54
2017-11-01T06:50:45.422Z,82.91
2017-11-01T06:53:13.800Z,82.66
2017-11-01T06:55:42.357Z,83.03
2017-11-01T06:58:11.400Z,82.91
2017-11-01T07:00:39.889Z,82.84
2017-11-01T07:06:09.858Z,83.13
2017-11-01T07:08:38.221Z,82.72
2017-11-01T07:11:07.101Z,83.39
2017-11-01T07:13:35.516Z,83.59
2017-11-01T07:16:04.629Z,83.46
2017-11-01T07:18:32.990Z,83.66
2017-11-01T07:21:01.881Z,82.69
2017-11-01T07:23:30.533Z,82.69
2017-11-01T07:25:59.580Z,83.50
2017-11-01T07:28:28.301Z,84.29
2017-11-01T07:30:57.428Z,84.15
2017-11-01T07:33:26.553Z,83.39
2017-11-01T07:35:55.701Z,83.62
2017-11-01T07:38:24.821Z,84.07
2017-11-01T07:40:53.187Z,83.89
2017-11-01T07:43:23.289Z,83.38
2017-11-01T07:45:51.660Z,83.76
2017-11-01T07:48:20.046Z,82.73
2017-11-01T07:50:48.524Z,83.13
2017-11-01T07:53:16.870Z,82.64
2017-11-01T07:55:45.218Z,82.32
2017-11-01T07:58:14.484Z,83.20
2017-11-01T08:00:44.312Z,82.76
2017-11-01T08:03:13.503Z,82.35
2017-11-01T08:05:42.077Z,81.67
2017-11-01T08:08:10.442Z,82.83
2017-11-01T08:10:39.749Z,83.01
2017-11-01T08:13:10.294Z,83.21
2017-11-01T08:15:38.861Z,84.14
2017-11-01T08:18:07.232Z,84.29
2017-11-01T08:20:35.627Z,84.35
2017-11-01T08:23:03.974Z,83.31
2017-11-01T08:25:32.852Z,83.69
2017-11-01T08:28:01.298Z,83.63
2017-11-01T08:30:30.482Z,83.03
2017-11-01T08:32:58.853Z,83.85
2017-11-01T08:35:27.537Z,83.39
2017-11-01T08:37:56.630Z,83.52
2017-11-01T08:40:24.977Z,83.59
2017-11-01T08:42:53.713Z,82.59
2017-11-01T08:45:22.063Z,83.18
2017-11-01T08:47:50.425Z,82.60
2017-11-01T08:50:19.416Z,82.20
2017-11-01T08:52:47.784Z,81.48
2017-11-01T08:55:16.893Z,81.07
2017-11-01T08:57:45.261Z,81.56
2017-11-01T09:00:13.723Z,81.73
2017-11-01T09:02:42.109Z,81.54
2017-11-01T09:05:11.293Z,81.39
2017-11-01T09:07:41.134Z,81.74
2017-11-01T09:10:11.713Z,81.35
2017-11-01T09:12:40.391Z,81.07
2017-11-01T09:15:08.762Z,81.05
2017-11-01T09:17:37.197Z,81.17
2017-11-01T09:20:05.572Z,81.27
2017-11-01T09:22:34.831Z,82.21
2017-11-01T09:25:03.206Z,82.11
2017-11-01T09:27:32.337Z,81.28
2017-11-01T09:30:00.760Z,81.38
2017-11-01T09:32:29.143Z,81.16
2017-11-01T09:34:58.437Z,81.02
2017-11-01T09:37:26.791Z,80.81
2017-11-01T09:39:56.313Z,81.43
2017-11-01T09:42:25.497Z,80.97
2017-11-01T09:44:55.282Z,81.24
2017-11-01T09:47:23.646Z,81.02
2017-11-01T09:49:52.050Z,80.36
2017-11-01T09:52:20.397Z,79.90
2017-11-01T09:54:50.482Z,79.47
2017-11-01T09:57:20.423Z,79.44
2017-11-01T09:59:49.511Z,78.64
2017-11-01T10:02:20.138Z,79.03
2017-11-01T10:04:48.502Z,79.67
2017-11-01T10:07:18.645Z,80.51
2017-11-01T10:09:47.744Z,80.45
2017-11-01T10:12:16.865Z,80.24
2017-11-01T10:14:46.057Z,80.13
2017-11-01T10:17:14.452Z,80.19
2017-11-01T10:19:43.437Z,80.65
2017-11-01T10:22:12.607Z,80.36
2017-11-01T10:24:42.210Z,80.24
2017-11-01T10:27:10.562Z,79.72
2017-11-01T10:29:39.786Z,80.21
2017-11-01T10:32:08.305Z,80.15
2017-11-01T10:34:36.694Z,80.26
2017-11-01T10:37:05.074Z,80.12
2017-11-01T10:39:34.224Z,80.46
2017-11-01T10:42:03.775Z,80.92
2017-11-01T10:44:32.127Z,80.62
2017-11-01T10:47:00.498Z,80.74
2017-11-01T10:49:28.907Z,80.04
2017-11-01T10:51:57.246Z,80.10
2017-11-01T10:54:25.590Z,79.77
2017-11-01T10:56:53.972Z,80.82
2017-11-01T10:59:22.301Z,81.00
2017-11-01T11:01:50.656Z,80.43
2017-11-01T11:04:20.102Z,80.28
2017-11-01T11:06:48.453Z,80.42
2017-11-01T11:09:16.788Z,80.13
2017-11-01T11:11:47.770Z,79.55
2017-11-01T11:14:16.939Z,79.60
2017-11-01T11:16:45.290Z,79.58
2017-11-01T11:19:13.677Z,79.99
2017-11-01T11:21:42.028Z,80.29
2017-11-01T11:24:10.350Z,80.29
2017-11-01T11:26:40.266Z,78.84
2017-11-01T11:29:10.284Z,78.99
2017-11-01T11:31:38.643Z,79.30
2017-11-01T11:34:08.259Z,80.11
2017-11-01T11:36:36.593Z,80.18
2017-11-01T11:39:04.941Z,78.77
2017-11-01T11:41:33.323Z,79.54
2017-11-01T11:44:01.674Z,79.91
2017-11-01T11:46:30.020Z,79.45
2017-11-01T11:48:58.593Z,78.31
2017-11-01T11:51:26.939Z,78.64
2017-11-01T11:53:55.299Z,78.80
2017-11-01T11:56:25.414Z,79.01
2017-11-01T11:58:53.766Z,79.67
2017-11-01T12:01:22.145Z,79.82
2017-11-01T12:03:51.854Z,79.97
2017-11-01T12:06:20.217Z,80.14
2017-11-01T12:08:48.584Z,79.67
2017-11-01T12:11:17.355Z,79.94
2017-11-01T12:13:45.720Z,80.05
2017-11-01T12:16:15.314Z,79.68
2017-11-01T12:18:44.199Z,80.68
2017-11-01T12:21:12.774Z,80.99
2017-11-01T12:23:41.129Z,79.42
2017-11-01T12:26:10.831Z,79.20
2017-11-01T12:28:39.190Z,79.19
2017-11-01T12:31:07.540Z,80.13
2017-11-01T12:33:36.269Z,79.25
2017-11-01T12:36:04.659Z,79.35
2017-11-01T12:38:33.016Z,80.70
2017-11-01T12:41:01.391Z,79.88
2017-11-01T12:43:30.107Z,78.86
2017-11-01T12:45:59.373Z,78.31
2017-11-01T12:48:28.526Z,78.13
2017-11-01T12:50:57.213Z,78.56
2017-11-01T12:53:25.580Z,78.94
2017-11-01T12:55:54.125Z,79.58
2017-11-01T12:58:22.467Z,78.81
2017-11-01T13:00:51.590Z,79.12
2017-11-01T13:03:19.984Z,78.62
2017-11-01T13:05:48.357Z,78.75
2017-11-01T13:08:17.680Z,78.19
2017-11-01T13:10:46.814Z,78.68
2017-11-01T13:13:15.195Z,77.35
2017-11-01T13:15:43.573Z,76.51
2017-11-01T13:18:14.037Z,76.43
2017-11-01T13:20:43.180Z,76.89
2017-11-01T13:23:11.897Z,76.39
2017-11-01T13:25:41.225Z,76.58
2017-11-01T13:28:10.934Z,77.00
2017-11-01T13:30:41.105Z,77.75
2017-11-01T13:33:09.484Z,77.97
2017-11-01T13:35:37.867Z,77.37
2017-11-01T13:38:06.212Z,77.14
2017-11-01T13:40:35.202Z,77.62
2017-11-01T13:43:03.550Z,78.25
2017-11-01T13:45:32.715Z,79.05
2017-11-01T13:48:01.089Z,78.55
2017-11-01T13:50:30.275Z,77.81
2017-11-01T13:52:59.187Z,77.49
2017-11-01T13:55:28.274Z,76.95
2017-11-01T13:57:56.640Z,77.01
2017-11-01T14:00:24.974Z,77.79
2017-11-01T14:02:54.625Z,77.76
2017-11-01T14:05:24.146Z,77.86
2017-11-01T14:07:53.106Z,77.62
2017-11-01T14:10:21.486Z,77.77
2017-11-01T14:12:49.833Z,78.06
2017-11-01T14:15:18.176Z,78.00
2017-11-01T14:17:46.552Z,77.89
2017-11-01T14:20:14.893Z,77.89
2017-11-01T14:22:44.002Z,77.58
2017-11-01T14:25:12.914Z,77.34
2017-11-01T14:27:41.315Z,77.37
2017-11-01T14:30:10.975Z,77.42
2017-11-01T14:32:40.269Z,77.48
2017-11-01T14:35:09.602Z,77.77
2017-11-01T14:37:37.946Z,78.32
2017-11-01T14:40:07.086Z,78.18
2017-11-01T14:42:35.454Z,78.62
2017-11-01T14:45:03.803Z,79.49
2017-11-01T14:47:33.077Z,79.59
2017-11-01T14:50:01.476Z,79.19
2017-11-01T14:52:30.609Z,79.25
2017-11-01T14:54:59.015Z,78.88
2017-11-01T14:57:27.777Z,79.67
2017-11-01T14:59:56.114Z,80.48
2017-11-01T15:02:26.031Z,80.29
2017-11-01T15:04:55.840Z,80.76
2017-11-01T15:07:24.960Z,80.62
2017-11-01T15:09:54.694Z,79.84
2017-11-01T15:12:23.250Z,79.13
2017-11-01T15:14:52.357Z,80.04
2017-11-01T15:17:20.732Z,80.47
2017-11-01T15:19:49.074Z,80.58
2017-11-01T15:22:17.631Z,80.71
2017-11-01T15:24:46.019Z,80.59
2017-11-01T15:27:15.137Z,81.01
2017-11-01T15:29:43.480Z,81.10
2017-11-01T15:32:11.948Z,80.80
2017-11-01T15:34:40.572Z,80.15
2017-11-01T15:37:08.936Z,80.24
2017-11-01T15:39:38.020Z,81.09
2017-11-01T15:42:07.250Z,81.75
2017-11-01T15:44:35.690Z,81.83
2017-11-01T15:47:04.775Z,81.61
2017-11-01T15:49:33.123Z,81.46
2017-11-01T15:52:02.250Z,81.01
2017-11-01T15:54:31.714Z,82.00
2017-11-01T15:57:00.098Z,81.82
2017-11-01T15:59:28.460Z,81.80
2017-11-01T16:01:58.032Z,82.00
2017-11-01T16:04:26.387Z,82.03
2017-11-01T16:06:55.756Z,81.68
2017-11-01T16:09:24.124Z,81.24
2017-11-01T16:11:52.460Z,81.29
2017-11-01T16:14:20.832Z,81.48
2017-11-01T16:16:51.000Z,80.86
2017-11-01T16:19:19.350Z,80.98
2017-11-01T16:21:47.703Z,80.90
2017-11-01T16:24:16.723Z,81.97
2017-11-01T16:26:45.065Z,82.46
2017-11-01T16:29:15.919Z,81.70
2017-11-01T16:31:45.693Z,81.66
2017-11-01T16:34:14.745Z,81.89
2017-11-01T16:36:43.102Z,81.21
2017-11-01T16:39:11.703Z,81.07
2017-11-01T16:41:40.689Z,80.76
2017-11-01T16:44:09.021Z,80.61
2017-11-01T16:46:37.842Z,80.93
2017-11-01T16:49:06.948Z,82.47
2017-11-01T16:51:35.537Z,82.52
2017-11-01T16:54:03.936Z,82.20
2017-11-01T16:56:32.559Z,81.12
2017-11-01T16:59:02.276Z,81.71
2017-11-01T17:01:32.746Z,83.01
2017-11-01T17:04:01.094Z,81.87
2017-11-01T17:06:30.218Z,81.74
2017-11-01T17:08:58.997Z,80.90
2017-11-01T17:11:27.376Z,80.73
2017-11-01T17:13:55.743Z,80.80
2017-11-01T17:16:24.671Z,80.31
2017-11-01T17:18:53.015Z,80.27
2017-11-01T17:21:21.394Z,80.08
2017-11-01T17:23:49.956Z,79.10
2017-11-01T17:26:19.322Z,78.60
2017-11-01T17:28:47.686Z,79.42
2017-11-01T17:31:16.117Z,79.83
2017-11-01T17:33:45.261Z,79.56
2017-11-01T17:36:13.649Z,80.13
2017-11-01T17:38:42.099Z,79.44
2017-11-01T17:41:11.222Z,78.79
2017-11-01T17:43:39.569Z,78.56
2017-11-01T17:46:08.115Z,78.82
2017-11-01T17:48:36.471Z,78.91
2017-11-01T17:51:05.727Z,79.35
2017-11-01T17:53:34.901Z,78.77
2017-11-01T17:56:03.593Z,77.38
2017-11-01T17:58:31.955Z,78.14
2017-11-01T18:01:00.373Z,77.85
2017-11-01T18:03:28.751Z,78.74
2017-11-01T18:05:57.875Z,78.16
2017-11-01T18:08:26.381Z,77.81
2017-11-01T18:10:54.780Z,77.42
2017-11-01T18:13:23.147Z,77.80
2017-11-01T18:15:52.509Z,78.73
2017-11-01T18:18:21.677Z,78.44
2017-11-01T18:20:50.062Z,78.32
2017-11-01T18:23:19.214Z,78.07
2017-11-01T18:25:48.339Z,77.57
2017-11-01T18:28:17.665Z,77.46
2017-11-01T18:30:46.285Z,77.26
2017-11-01T18:33:16.090Z,78.27
2017-11-01T18:35:44.441Z,78.46
2017-11-01T18:38:13.692Z,79.01
2017-11-01T18:40:43.616Z,78.18
2017-11-01T18:43:13.216Z,77.90
2017-11-01T18:45:41.604Z,78.02
2017-11-01T18:48:09.971Z,78.86
2017-11-01T18:50:38.760Z,78.84
2017-11-01T18:53:07.195Z,77.94
2017-11-01T18:55:36.574Z,78.12
2017-11-01T18:58:06.358Z,78.66
2017-11-01T19:00:34.748Z,78.48
2017-11-01T19:03:03.315Z,78.92
2017-11-01T19:05:31.667Z,78.28
2017-11-01T19:08:01.656Z,78.43
2017-11-01T19:10:30.001Z,79.03
2017-11-01T19:12:58.371Z,77.98
2017-11-01T19:15:27.155Z,78.98
2017-11-01T19:17:58.281Z,79.45
2017-11-01T19:20:26.694Z,78.82
2017-11-01T19:22:55.089Z,78.47
2017-11-01T19:25:23.432Z,80.06
2017-11-01T19:27:52.021Z,80.05
2017-11-01T19:30:20.408Z,80.17
2017-11-01T19:32:49.520Z,80.19
2017-11-01T19:35:17.898Z,79.35
2017-11-01T19:37:47.252Z,79.79
2017-11-01T19:40:15.600Z,79.73
2017-11-01T19:42:44.758Z,79.75
2017-11-01T19:45:13.178Z,80.04
2017-11-01T19:47:42.158Z,80.71
2017-11-01T19:50:10.516Z,80.18
2017-11-01T19:52:38.913Z,80.10
2017-11-01T19:55:07.275Z,80.93
2017-11-01T19:57:36.747Z,80.27
2017-11-01T20:00:06.214Z,79.33
2017-11-01T20:02:34.969Z,80.07
2017-11-01T20:05:05.247Z,79.76
2017-11-01T20:07:35.206Z,79.79
2017-11-01T20:10:05.291Z,79.62
2017-11-01T20:12:34.513Z,79.45
2017-11-01T20:15:02.996Z,80.24
2017-11-01T20:17:31.359Z,79.60
2017-11-01T20:20:00.593Z,80.10
2017-11-01T20:22:29.308Z,80.32
2017-11-01T20:24:58.470Z,79.83
2017-11-01T20:27:28.027Z,79.69
2017-11-01T20:29:57.342Z,80.02
2017-11-01T20:32:27.184Z,80.87
2017-11-01T20:34:57.485Z,79.59
2017-11-01T20:37:26.624Z,79.74
2017-11-01T20:39:55.051Z,80.46
2017-11-01T20:42:23.498Z,80.82
2017-11-01T20:44:51.981Z,80.47
2017-11-01T20:47:20.854Z,80.02
2017-11-01T20:49:49.235Z,80.22
2017-11-01T20:52:17.651Z,80.20
2017-11-01T20:54:46.013Z,79.77
2017-11-01T20:57:14.603Z,79.77
2017-11-01T20:59:43.664Z,79.83
2017-11-01T21:02:12.273Z,79.28
2017-11-01T21:04:41.486Z,78.77
2017-11-01T21:07:09.954Z,79.15
2017-11-01T21:09:38.525Z,78.87
2017-11-01T21:12:07.235Z,80.76
2017-11-01T21:14:35.778Z,81.13
2017-11-01T21:17:04.195Z,80.68
2017-11-01T21:19:34.124Z,80.38
2017-11-01T21:22:02.605Z,80.96
2017-11-01T21:24:30.968Z,81.19
2017-11-01T21:26:59.300Z,81.56
2017-11-01T21:29:28.511Z,81.77
2017-11-01T21:31:56.882Z,82.12
2017-11-01T21:34:25.971Z,83.17
2017-11-01T21:36:55.157Z,82.20
2017-11-01T21:39:23.515Z,82.03
2017-11-01T21:41:51.876Z,82.19
2017-11-01T21:44:20.262Z,82.66
2017-11-01T21:46:48.637Z,82.96
2017-11-01T21:49:17.018Z,83.43
2017-11-01T21:51:45.618Z,83.29
2017-11-01T21:54:13.973Z,83.06
2017-11-01T21:56:42.580Z,82.73
2017-11-01T21:59:10.976Z,82.73
2017-11-01T22:01:40.115Z,81.98
2017-11-01T22:04:08.485Z,82.35
2017-11-01T22:06:38.102Z,82.88
2017-11-01T22:09:06.454Z,83.00
2017-11-01T22:11:35.501Z,81.96
2017-11-01T22:14:04.054Z,81.96
2017-11-01T22:16:32.428Z,81.48
2017-11-01T22:19:00.757Z,80.59
2017-11-01T22:21:29.151Z,81.12
2017-11-01T22:23:57.753Z,80.46
2017-11-01T22:26:26.630Z,81.11
2017-11-01T22:28:55.340Z,79.86
2017-11-01T22:31:23.924Z,79.88
2017-11-01T22:33:52.524Z,80.27
2017-11-01T22:36:21.772Z,80.06
2017-11-01T22:38:50.126Z,80.07
2017-11-01T22:41:18.518Z,79.52
2017-11-01T22:43:47.684Z,79.57
2017-11-01T22:46:16.296Z,79.10
2017-11-01T22:48:45.286Z,78.64
2017-11-01T22:51:14.234Z,79.46
2017-11-01T22:53:43.191Z,80.03
2017-11-01T22:56:12.045Z,79.76
2017-11-01T22:58:41.213Z,79.24
2017-11-01T23:01:10.131Z,79.84
2017-11-01T23:03:39.404Z,79.37
2017-11-01T23:06:07.888Z,79.21
2017-11-01T23:08:36.223Z,79.69
2017-11-01T23:11:05.357Z,79.42
2017-11-01T23:13:33.741Z,79.80
2017-11-01T23:16:02.112Z,79.62
2017-11-01T23:18:32.001Z,79.47
2017-11-01T23:21:01.336Z,79.83
2017-11-01T23:23:29.886Z,79.37
2017-11-01T23:25:58.434Z,78.76
2017-11-01T23:28:27.726Z,78.13
2017-11-01T23:30:56.854Z,78.04
2017-11-01T23:33:25.992Z,78.96
2017-11-01T23:35:55.118Z,78.92
2017-11-01T23:38:23.462Z,78.35
2017-11-01T23:40:51.828Z,78.46
2017-11-01T23:43:21.141Z,79.24
2017-11-01T23:45:50.241Z,78.48
2017-11-01T23:48:19.367Z,79.19
2017-11-01T23:50:47.782Z,79.45
2017-11-01T23:53:16.913Z,79.48
2017-11-01T23:55:46.707Z,78.63
2017-11-01T23:58:15.863Z,77.79
